Terminal Aerodrome Forecast
Issued by NWS

Home | Current Version | Previous Version | Text Only | Print | Product List | Glossary On
Versions: 1 2 3 4 5 6 7 8 9 10 11 12 13 14 15 16 17 18 19 20
000
FTUS42 KMLB 240520
TAFSUA
TAF
KSUA 240520Z 2406/2506 29004KT P6SM FEW018 SCT030
     FM240900 VRB03KT P6SM BKN010
     FM241400 27009KT P6SM SCT030
      TEMPO 2415/2418 BKN035
     FM241800 27016G24KT P6SM SCT040
     FM250000 26011KT P6SM SCT250=

USA.gov is the U.S. government's official web portal to all federal, state and local government web resources and services.